Time;durP1;ratioP1;P1;durP2;ratioP2;P2;SDS_P1;SDS_P2;PMS_P1;PMS_P2;Temp;Humidity;BMP_temperature;BMP_pressure;BME280_temperature;BME280_humidity;BME280_pressure;Samples;Min_cycle;Max_cycle;Signal;HPM_P1;HPM_P2
2022/04/29 07:01:08;;;;;;;;;;;;;;;;;;5131284;27;19911;-74
2022/04/29 07:03:34;;;;;;;;;;;;;;;;;;5130768;28;19918;-75
2022/04/29 07:06:01;;;;;;;;;;;;;;;;;;5131351;28;19907;-75
2022/04/29 07:08:28;;;;;;;;;;;;;;;;;;5130639;28;19915;-75
2022/04/29 07:10:54;;;;;;;;;;;;;;;;;;5131311;28;19995;-75
2022/04/29 07:13:20;;;;;;;;;;;10.90;82.80;;;;;;5131067;28;19950;-76
2022/04/29 07:15:47;;;;;;;;;;;;;;;;;;5130617;28;19918;-75
2022/04/29 07:18:13;;;;;;;;;;;;;;;;;;5130772;28;20260;-74
2022/04/29 07:20:38;;;;;;;;;;;11.20;86.60;;;;;;5130432;28;19989;-74
2022/04/29 07:23:04;;;;;;;;;;;;;;;;;;5130924;28;19915;-74
2022/04/29 07:25:30;;;;;;;;;;;;;;;;;;5130360;28;19915;-75
2022/04/29 07:27:56;;;;;;;;;;;11.10;84.00;;;;;;5112568;28;19946;-75
2022/04/29 07:30:22;;;;;;;;;;;;;;;;;;5131126;28;19956;-75
2022/04/29 07:32:48;;;;;;;;;;;;;;;;;;5112673;28;20279;-74
2022/04/29 07:43:26;;;;;;;;;;;;;;;;;;5129802;28;19930;-74
2022/04/29 07:45:52;;;;;;;;;;;;;;;;;;5130594;28;20367;-75
2022/04/29 07:48:18;;;;;;;;;;;;;;;;;;5130507;28;19915;-75
2022/04/29 07:50:44;;;;;;;;;;;;;;;;;;5129945;28;19911;-75
2022/04/29 07:53:10;;;;;;;;;;;;;;;;;;5130577;28;19908;-75
2022/04/29 07:55:36;;;;;;;;;;;;;;;;;;5129825;28;19955;-75
2022/04/29 07:58:03;;;;;;;;;;;11.50;86.00;;;;;;5130393;28;19912;-75
2022/04/29 08:00:31;;;;;;;;;;;11.70;84.10;;;;;;5129606;28;19977;-74
2022/04/29 08:02:57;;;;;;;;;;;;;;;;;;5111924;28;19908;-75
2022/04/29 08:05:22;;;;;;;;;;;;;;;;;;5130257;28;20313;-75
2022/04/29 08:07:48;;;;;;;;;;;11.60;80.60;;;;;;5129302;28;19907;-75
2022/04/29 08:10:13;;;;;;;;;;;11.50;81.60;;;;;;5127680;28;19915;-75
2022/04/29 08:12:39;;;;;;;;;;;;;;;;;;5115705;28;20360;-75
2022/04/29 08:15:05;;;;;;;;;;;;;;;;;;5098151;28;19907;-75
2022/04/29 08:17:31;;;;;;;;;;;;;;;;;;5115727;28;19908;-75
2022/04/29 08:19:58;;;;;;;;;;;12.00;79.60;;;;;;5115927;28;19923;-76
2022/04/29 08:22:24;;;;;;;;;;;;;;;;;;5116268;28;19946;-75
2022/04/29 08:24:49;;;;;;;;;;;;;;;;;;5115512;28;19912;-75
2022/04/29 08:27:16;;;;;;;;;;;;;;;;;;5116188;28;20316;-75
2022/04/29 08:29:41;;;;;;;;;;;11.70;78.00;;;;;;5115202;28;19915;-75
2022/04/29 08:32:07;;;;;;;;;;;;;;;;;;5116002;28;20006;-75
2022/04/29 08:34:37;;;;;;;;;;;;;;;;;;5096937;28;20263;-75
2022/04/29 08:37:03;;;;;;;;;;;;;;;;;;5116011;28;20027;-75
2022/04/29 08:39:29;;;;;;;;;;;;;;;;;;5097068;28;19915;-75
2022/04/29 08:41:55;;;;;;;;;;;;;;;;;;5115814;28;19908;-75
2022/04/29 08:44:23;;;;;;;;;;;;;;;;;;5115501;28;19918;-75
2022/04/29 08:46:48;;;;;;;;;;;12.20;75.70;;;;;;5115213;28;19908;-75
2022/04/29 08:49:14;;;;;;;;;;;;;;;;;;5115437;28;19915;-75
2022/04/29 08:51:40;;;;;;;;;;;;;;;;;;5115072;28;19958;-75
2022/04/29 08:54:06;;;;;;;;;;;12.20;76.30;;;;;;5115623;28;19952;-75
2022/04/29 08:59:16;;;;;;;;;;;;;;;;;;5114901;28;19930;-75
2022/04/29 09:01:44;;;;;;;;;;;;;;;;;;5114688;28;19911;-75
2022/04/29 09:04:10;;;;;;;;;;;;;;;;;;5115469;28;19915;-75
2022/04/29 09:06:36;;;;;;;;;;;;;;;;;;5114788;28;19907;-75
2022/04/29 09:09:01;;;;;;;;;;;;;;;;;;5115323;28;19992;-75
2022/04/29 09:11:27;;;;;;;;;;;;;;;;;;5115610;28;19930;-76
2022/04/29 09:13:53;;;;;;;;;;;;;;;;;;5114473;28;20252;-75
2022/04/29 09:16:19;;;;;;;;;;;;;;;;;;5115251;28;20002;-75
2022/04/29 09:18:45;;;;;;;;;;;;;;;;;;5114461;28;20010;-75
2022/04/29 09:21:11;;;;;;;;;;;;;;;;;;5115172;28;19962;-76
2022/04/29 09:23:37;;;;;;;;;;;;;;;;;;5113437;28;19959;-75
2022/04/29 09:26:05;;;;;;;;;;;;;;;;;;5114983;28;19950;-76
2022/04/29 09:28:31;;;;;;;;;;;;;;;;;;5114235;28;19954;-75
2022/04/29 09:30:57;;;;;;;;;;;;;;;;;;5115338;28;20274;-76
2022/04/29 09:33:23;;;;;;;;;;;;;;;;;;5114872;28;19954;-76
2022/04/29 09:35:49;;;;;;;;;;;;;;;;;;5114173;28;19908;-75
2022/04/29 09:41:00;;;;;;;;;;;;;;;;;;5114541;28;19919;-76
2022/04/29 09:43:26;;;;;;;;;;;;;;;;;;5114653;28;19915;-76
2022/04/29 09:45:52;;;;;;;;;;;;;;;;;;5114014;28;19972;-76
2022/04/29 09:48:18;;;;;;;;;;;;;;;;;;5114901;28;20340;-76
2022/04/29 09:50:44;;;;;;;;;;;;;;;;;;5113948;28;20006;-75
2022/04/29 09:53:10;;;;;;;;;;;;;;;;;;5114195;28;19908;-75
2022/04/29 09:55:35;;;;;;;;;;;14.10;32.90;;;;;;5114127;28;19908;-76
2022/04/29 09:58:01;;;;;;;;;;;;;;;;;;5114422;28;20268;-76
2022/04/29 10:00:27;;;;;;;;;;;;;;;;;;5092104;28;19968;-76
2022/04/29 10:02:52;;;;;;;;;;;14.10;35.30;;;;;;5093346;28;19947;-76
2022/04/29 10:05:18;;;;;;;;;;;;;;;;;;5094084;28;20427;-76
2022/04/29 10:07:44;;;;;;;;;;;;;;;;;;5093279;28;19908;-75
2022/04/29 10:10:10;;;;;;;;;;;14.60;27.60;;;;;;5092522;28;19908;-75
2022/04/29 10:12:36;;;;;;;;;;;14.50;27.50;;;;;;5093200;28;19954;-75
2022/04/29 10:15:06;;;;;;;;;;;;;;;;;;5093784;28;19997;-75
2022/04/29 10:23:03;;;;;;;;;;;;;;;;;;5093667;28;20272;-75
2022/04/29 10:25:28;;;;;;;;;;;14.90;23.30;;;;;;5093590;28;19908;-76
2022/04/29 10:27:54;;;;;;;;;;;;;;;;;;5092880;28;19954;-76
2022/04/29 10:30:20;;;;;;;;;;;;;;;;;;5092124;28;19923;-76
2022/04/29 10:32:46;;;;;;;;;;;;;;;;;;5092930;28;19908;-76
2022/04/29 10:35:12;;;;;;;;;;;;;;;;;;5093489;28;19943;-76
2022/04/29 10:37:39;;;;;;;;;;;;;;;;;;5093153;28;19912;-75
2022/04/29 10:40:10;;;;;;;;;;;14.70;18.80;;;;;;5093336;28;20427;-76
2022/04/29 10:42:54;;;;;;;;;;;14.70;15.20;;;;;;5092671;28;19959;-75
2022/04/29 10:45:20;;;;;;;;;;;;;;;;;;5093633;28;19908;-75
2022/04/29 10:47:48;;;;;;;;;;;15.20;19.90;;;;;;5091352;28;20003;-75
2022/04/29 10:50:14;;;;;;;;;;;;;;;;;;5091932;28;19947;-75
2022/04/29 10:52:40;;;;;;;;;;;;;;;;;;5092664;28;19909;-75
2022/04/29 10:55:06;;;;;;;;;;;;;;;;;;5093236;28;19908;-75
2022/04/29 10:57:32;;;;;;;;;;;;;;;;;;5093230;28;20359;-75
2022/04/29 11:00:00;;;;;;;;;;;16.20;7.30;;;;;;5105348;28;19924;-75
2022/04/29 11:02:26;;;;;;;;;;;;;;;;;;5113392;28;19907;-75
2022/04/29 11:04:52;;;;;;;;;;;16.10;10.80;;;;;;5112891;28;20274;-75
2022/04/29 11:07:18;;;;;;;;;;;;;;;;;;5113082;28;19908;-75
2022/04/29 11:09:44;;;;;;;;;;;;;;;;;;5112739;28;20337;-75
2022/04/29 11:12:27;;;;;;;;;;;15.80;8.80;;;;;;5113340;28;19907;-75
2022/04/29 11:14:53;;;;;;;;;;;;;;;;;;5112452;28;19971;-75
2022/04/29 11:17:19;;;;;;;;;;;;;;;;;;5095035;28;19914;-76
2022/04/29 11:19:45;;;;;;;;;;;;;;;;;;5112549;28;19916;-75
2022/04/29 11:24:56;;;;;;;;;;;;;;;;;;5112365;28;19915;-75
2022/04/29 11:27:21;;;;;;;;;;;;;;;;;;5113238;28;19908;-76
2022/04/29 11:29:47;;;;;;;;;;;;;;;;;;5094154;28;19923;-75
2022/04/29 11:32:13;;;;;;;;;;;;;;;;;;5113269;28;19908;-75
2022/04/29 11:34:52;;;;;;;;;;;15.70;1.00;;;;;;5112586;28;20410;-75
2022/04/29 11:37:18;;;;;;;;;;;;;;;;;;5113088;28;19953;-75
2022/04/29 11:39:44;;;;;;;;;;;;;;;;;;5112404;28;19916;-75
2022/04/29 11:42:10;;;;;;;;;;;;;;;;;;5113114;28;19915;-75
2022/04/29 11:44:35;;;;;;;;;;;;;;;;;;5113003;28;20360;-75
2022/04/29 11:47:01;;;;;;;;;;;;;;;;;;5115216;28;19908;-75
2022/04/29 11:49:28;;;;;;;;;;;;;;;;;;5098622;28;19914;-75
2022/04/29 11:51:54;;;;;;;;;;;;;;;;;;5113908;28;19912;-74
2022/04/29 11:54:20;;;;;;;;;;;;;;;;;;5113155;28;19914;-75
2022/04/29 11:56:45;;;;;;;;;;;;;;;;;;5115872;28;20424;-75
2022/04/29 11:59:11;;;;;;;;;;;;;;;;;;5116591;28;19982;-74
2022/04/29 12:01:37;;;;;;;;;;;;;;;;;;5116691;28;20271;-75
2022/04/29 12:04:03;;;;;;;;;;;;;;;;;;5116055;28;19907;-74
2022/04/29 12:06:29;;;;;;;;;;;;;;;;;;5098442;28;19907;-74
2022/04/29 12:08:55;;;;;;;;;;;;;;;;;;5115924;28;19933;-74
2022/04/29 12:11:22;;;;;;;;;;;;;;;;;;5116475;28;19916;-75
2022/04/29 12:13:48;;;;;;;;;;;;;;;;;;5115821;28;19907;-74
2022/04/29 12:16:14;;;;;;;;;;;;;;;;;;5116700;28;19915;-74
2022/04/29 12:18:40;;;;;;;;;;;;;;;;;;5115857;28;19950;-70
2022/04/29 12:21:06;;;;;;;;;;;;;;;;;;5116026;28;19907;-75
2022/04/29 12:23:32;;;;;;;;;;;;;;;;;;5116273;28;19912;-75
2022/04/29 12:25:58;;;;;;;;;;;;;;;;;;5115871;28;19912;-74
2022/04/29 12:28:26;;;;;;;;;;;;;;;;;;5115987;28;19994;-74
2022/04/29 12:36:21;;;;;;;;;;;;;;;;;;5115855;28;20425;-75
2022/04/29 12:38:47;;;;;;;;;;;;;;;;;;5115172;28;19907;-75
2022/04/29 12:41:13;;;;;;;;;;;;;;;;;;5115946;28;19908;-74
2022/04/29 12:43:39;;;;;;;;;;;;;;;;;;5115823;28;19935;-75
2022/04/29 12:46:05;;;;;;;;;;;;;;;;;;5115159;28;19907;-75
2022/04/29 12:48:32;;;;;;;;;;;;;;;;;;5115851;28;20244;-75
2022/04/29 12:50:58;;;;;;;;;;;;;;;;;;5115016;28;20034;-74
2022/04/29 12:53:23;;;;;;;;;;;;;;;;;;5115647;28;19954;-74
2022/04/29 12:55:50;;;;;;;;;;;;;;;;;;5115347;28;19987;-75
2022/04/29 12:58:19;;;;;;;;;;;15.30;1.00;;;;;;5115499;28;19931;-75
2022/04/29 13:00:45;;;;;;;;;;;;;;;;;;5115061;28;19924;-74
2022/04/29 13:03:12;;;;;;;;;;;;;;;;;;5115395;28;19908;-74
2022/04/29 13:05:38;;;;;;;;;;;;;;;;;;5097249;28;20280;-74
2022/04/29 13:08:03;;;;;;;;;;;;;;;;;;5096469;28;19912;-74
2022/04/29 13:10:29;;;;;;;;;;;;;;;;;;5115293;28;19908;-77
2022/04/29 13:12:56;;;;;;;;;;;15.40;1.00;;;;;;5114723;28;19907;-76
2022/04/29 13:15:21;;;;;;;;;;;;;;;;;;5115160;28;19999;-76
2022/04/29 13:17:47;;;;;;;;;;;;;;;;;;5114588;28;20011;-76
2022/04/29 13:20:13;;;;;;;;;;;15.30;1.00;;;;;;5096816;28;20444;-77
2022/04/29 13:22:39;;;;;;;;;;;15.80;1.00;;;;;;5115066;28;19937;-76
2022/04/29 13:25:05;;;;;;;;;;;;;;;;;;5114435;28;20028;-75
2022/04/29 13:27:31;;;;;;;;;;;;;;;;;;5096650;28;19908;-76
2022/04/29 13:29:56;;;;;;;;;;;15.20;1.00;;;;;;5114373;28;20253;-76
2022/04/29 13:32:22;;;;;;;;;;;;;;;;;;5114840;28;19923;-76
2022/04/29 13:34:51;;;;;;;;;;;15.50;1.00;;;;;;5095947;28;19914;-76
2022/04/29 13:37:18;;;;;;;;;;;15.50;1.00;;;;;;5114701;28;19915;-77
2022/04/29 13:39:44;;;;;;;;;;;15.20;1.00;;;;;;5114717;28;19920;-71
2022/04/29 13:42:10;;;;;;;;;;;;;;;;;;5114685;28;19908;-76
2022/04/29 13:44:36;;;;;;;;;;;;;;;;;;5114674;28;19925;-76
2022/04/29 13:47:02;;;;;;;;;;;15.60;1.00;;;;;;5114346;28;20002;-76
2022/04/29 13:49:28;;;;;;;;;;;15.60;1.00;;;;;;5114902;28;19912;-77
2022/04/29 13:51:54;;;;;;;;;;;;;;;;;;5113862;28;19952;-76
2022/04/29 13:54:20;;;;;;;;;;;;;;;;;;5114270;28;19908;-76
2022/04/29 13:56:46;;;;;;;;;;;;;;;;;;5114126;28;19908;-71
2022/04/29 13:59:12;;;;;;;;;;;;;;;;;;5113865;28;20399;-76
2022/04/29 14:01:38;;;;;;;;;;;;;;;;;;5114312;28;19957;-76
2022/04/29 14:04:04;;;;;;;;;;;15.60;1.00;;;;;;5113350;28;20270;-77
2022/04/29 14:06:29;;;;;;;;;;;15.70;1.00;;;;;;5114284;28;19908;-76
2022/04/29 14:08:55;;;;;;;;;;;15.70;1.00;;;;;;5112981;28;19912;-76
2022/04/29 14:11:20;;;;;;;;;;;16.20;1.00;;;;;;5107184;28;20326;-76
2022/04/29 14:13:46;;;;;;;;;;;;;;;;;;5093438;28;19959;-77
2022/04/29 14:16:11;;;;;;;;;;;15.90;1.00;;;;;;5093061;28;20006;-77
2022/04/29 14:18:37;;;;;;;;;;;;;;;;;;5093507;28;19908;-78
2022/04/29 14:21:03;;;;;;;;;;;;;;;;;;5074783;28;19916;-77
2022/04/29 14:23:29;;;;;;;;;;;;;;;;;;5093459;28;20357;-77
2022/04/29 14:25:55;;;;;;;;;;;;;;;;;;5092936;28;19965;-76
2022/04/29 14:28:21;;;;;;;;;;;;;;;;;;5093379;28;20376;-76
2022/04/29 14:30:47;;;;;;;;;;;;;;;;;;5093117;28;19912;-76
2022/04/29 14:33:13;;;;;;;;;;;;;;;;;;5093140;28;20002;-76
2022/04/29 14:35:39;;;;;;;;;;;;;;;;;;5093122;28;19950;-75
2022/04/29 14:38:05;;;;;;;;;;;;;;;;;;5092731;28;19915;-76
2022/04/29 14:40:32;;;;;;;;;;;;;;;;;;5093297;28;19970;-76
2022/04/29 14:42:58;;;;;;;;;;;;;;;;;;5092685;28;20351;-77
2022/04/29 14:45:24;;;;;;;;;;;;;;;;;;5093002;28;20006;-76
2022/04/29 14:47:49;;;;;;;;;;;16.30;1.00;;;;;;5092930;28;19931;-75
2022/04/29 14:50:16;;;;;;;;;;;16.20;1.00;;;;;;5093199;28;19908;-76
2022/04/29 14:52:43;;;;;;;;;;;;;;;;;;5093155;28;19912;-76
2022/04/29 14:55:09;;;;;;;;;;;;;;;;;;5092791;28;20306;-75
2022/04/29 14:57:35;;;;;;;;;;;;;;;;;;5093162;28;19947;-76
2022/04/29 15:00:01;;;;;;;;;;;;;;;;;;5092304;28;19924;-77
2022/04/29 15:02:26;;;;;;;;;;;16.50;1.00;;;;;;5093072;28;19961;-77
2022/04/29 15:04:55;;;;;;;;;;;;;;;;;;5092515;28;20008;-76
2022/04/29 15:07:21;;;;;;;;;;;;;;;;;;5093336;28;19950;-77
2022/04/29 15:15:35;;;;;;;;;;;;;;;;;;5092887;28;19923;-77
2022/04/29 15:18:01;;;;;;;;;;;;;;;;;;5074217;28;19916;-77
2022/04/29 15:20:27;;;;;;;;;;;;;;;;;;5092828;28;19916;-77
2022/04/29 15:22:52;;;;;;;;;;;;;;;;;;5096448;28;19919;-77
2022/04/29 15:25:20;;;;;;;;;;;;;;;;;;5096895;28;20408;-78
2022/04/29 15:27:45;;;;;;;;;;;;;;;;;;5096992;28;20004;-77
2022/04/29 15:30:11;;;;;;;;;;;;;;;;;;5095928;28;20011;-77
2022/04/29 15:32:37;;;;;;;;;;;15.70;1.00;;;;;;5096735;28;20015;-77
2022/04/29 15:35:02;;;;;;;;;;;15.30;1.00;;;;;;5096028;28;19912;-77
2022/04/29 15:37:28;;;;;;;;;;;;;;;;;;5096790;28;19908;-76
2022/04/29 15:39:54;;;;;;;;;;;;;;;;;;5095612;28;19923;-75
2022/04/29 15:42:20;;;;;;;;;;;;;;;;;;5096757;28;19916;-78
2022/04/29 15:44:46;;;;;;;;;;;;;;;;;;5101067;28;19918;-77
2022/04/29 15:47:12;;;;;;;;;;;;;;;;;;5106605;28;20148;-77
2022/04/29 15:49:39;;;;;;;;;;;;;;;;;;5087514;28;19912;-77
2022/04/29 15:52:05;;;;;;;;;;;;;;;;;;5087306;28;20328;-78
2022/04/29 15:54:31;;;;;;;;;;;;;;;;;;5106157;28;19958;-78
2022/04/29 15:56:58;;;;;;;;;;;;;;;;;;5115773;28;19922;-77
2022/04/29 15:59:23;;;;;;;;;;;;;;;;;;5115804;28;20013;-78
2022/04/29 16:01:49;;;;;;;;;;;;;;;;;;5116646;28;19915;-78
2022/04/29 16:04:15;;;;;;;;;;;;;;;;;;5115852;28;19994;-78
2022/04/29 16:06:41;;;;;;;;;;;;;;;;;;5116395;28;19907;-77
2022/04/29 16:09:07;;;;;;;;;;;;;;;;;;5106171;28;19954;-77
2022/04/29 16:11:33;;;;;;;;;;;;;;;;;;5077621;28;19935;-78
2022/04/29 16:13:59;;;;;;;;;;;;;;;;;;5095329;28;19915;-77
2022/04/29 16:16:25;;;;;;;;;;;;;;;;;;5082893;28;19912;-77
2022/04/29 16:21:37;;;;;;;;;;;;;;;;;;5109601;28;19961;-77
2022/04/29 16:26:47;;;;;;;;;;;;;;;;;;5109466;28;19919;-82
2022/04/29 16:29:14;;;;;;;;;;;;;;;;;;5102231;28;19920;-77
2022/04/29 16:31:40;;;;;;;;;;;;;;;;;;5102372;28;19931;-77
2022/04/29 16:34:06;;;;;;;;;;;;;;;;;;5104046;28;20339;-79
2022/04/29 16:36:33;;;;;;;;;;;;;;;;;;5104897;28;19912;-80
2022/04/29 16:38:59;;;;;;;;;;;;;;;;;;5104673;28;20351;-75
2022/04/29 16:41:25;;;;;;;;;;;;;;;;;;5104339;28;19953;-79
2022/04/29 16:43:52;;;;;;;;;;;;;;;;;;5103253;28;20316;-79
2022/04/29 16:46:23;;;;;;;;;;;;;;;;;;5102519;28;20000;-76
2022/04/29 16:48:49;;;;;;;;;;;;;;;;;;5103929;28;19957;-82
2022/04/29 16:51:15;;;;;;;;;;;;;;;;;;5104545;28;19916;-83
2022/04/29 16:53:41;;;;;;;;;;;;;;;;;;5103165;28;20010;-83
2022/04/29 16:56:07;;;;;;;;;;;;;;;;;;5103435;28;19915;-82
2022/04/29 16:58:43;;;;;;;;;;;;;;;;;;5104488;28;19908;-83
2022/04/29 17:01:09;;;;;;;;;;;;;;;;;;5101682;28;19924;-82
2022/04/29 17:03:35;;;;;;;;;;;;;;;;;;5104947;28;19915;-77
2022/04/29 17:06:01;;;;;;;;;;;;;;;;;;5101489;28;20331;-78
2022/04/29 17:08:27;;;;;;;;;;;;;;;;;;5104733;28;19914;-75
2022/04/29 17:10:53;;;;;;;;;;;;;;;;;;5113801;28;19994;-75
2022/04/29 17:13:18;;;;;;;;;;;;;;;;;;5114716;28;19907;-75
2022/04/29 17:15:46;;;;;;;;;;;;;;;;;;5115517;28;19982;-75
2022/04/29 17:18:12;;;;;;;;;;;;;;;;;;5114645;28;20367;-74
2022/04/29 17:20:38;;;;;;;;;;;;;;;;;;5115186;28;19916;-75
2022/04/29 17:23:04;;;;;;;;;;;;;;;;;;5099888;28;19912;-75
2022/04/29 17:25:30;;;;;;;;;;;;;;;;;;5094722;28;20279;-75
2022/04/29 17:27:55;;;;;;;;;;;;;;;;;;5093778;28;19934;-73
2022/04/29 17:30:21;;;;;;;;;;;;;;;;;;5075399;28;19923;-75
2022/04/29 17:32:50;;;;;;;;;;;;;;;;;;5094309;28;19990;-74
2022/04/29 17:35:16;;;;;;;;;;;;;;;;;;5093841;28;19916;-74
2022/04/29 17:37:42;;;;;;;;;;;;;;;;;;5094116;28;19931;-75
2022/04/29 17:42:52;;;;;;;;;;;;;;;;;;5093672;28;20311;-75
2022/04/29 17:45:18;;;;;;;;;;;;;;;;;;5096295;28;20006;-85
2022/04/29 17:47:44;;;;;;;;;;;;;;;;;;5086154;28;19951;-84
2022/04/29 17:50:16;;;;;;;;;;;;;;;;;;5102514;28;19954;-83
2022/04/29 17:52:48;;;;;;;;;;;13.40;26.30;;;;;;5104927;28;19947;-84
2022/04/29 17:55:14;;;;;;;;;;;;;;;;;;5101726;28;19913;-84
2022/04/29 17:57:40;;;;;;;;;;;;;;;;;;5103951;28;19915;-84
2022/04/29 18:00:06;;;;;;;;;;;;;;;;;;5080089;28;19939;-84
2022/04/29 18:02:32;;;;;;;;;;;;;;;;;;5093971;28;19908;-84
2022/04/29 18:04:57;;;;;;;;;;;;;;;;;;5093386;28;19950;-84
2022/04/29 18:07:23;;;;;;;;;;;;;;;;;;5095714;28;20371;-85
2022/04/29 18:09:49;;;;;;;;;;;;;;;;;;5099940;28;19919;-84
2022/04/29 18:12:15;;;;;;;;;;;;;;;;;;5102970;28;20012;-73
2022/04/29 18:14:41;;;;;;;;;;;;;;;;;;5102487;28;19934;-79
2022/04/29 18:17:07;;;;;;;;;;;;;;;;;;5102725;28;19908;-79
2022/04/29 18:19:33;;;;;;;;;;;;;;;;;;5101381;28;19924;-77
2022/04/29 18:21:59;;;;;;;;;;;;;;;;;;5102130;28;19908;-79
2022/04/29 18:24:25;;;;;;;;;;;;;;;;;;5103346;28;19908;-79
2022/04/29 18:26:51;;;;;;;;;;;;;;;;;;5101334;28;19908;-79
2022/04/29 18:29:17;;;;;;;;;;;;;;;;;;5102242;28;20359;-79
2022/04/29 18:31:43;;;;;;;;;;;;;;;;;;5100565;28;19912;-79
2022/04/29 18:34:08;;;;;;;;;;;;;;;;;;5074490;28;20442;-79
2022/04/29 18:36:34;;;;;;;;;;;;;;;;;;5094575;28;19999;-79
2022/04/29 18:39:00;;;;;;;;;;;;;;;;;;5098894;28;19951;-78
2022/04/29 18:41:26;;;;;;;;;;;;;;;;;;5100823;28;20352;-81
2022/04/29 18:43:52;;;;;;;;;;;;;;;;;;5100945;28;19954;-79
2022/04/29 18:46:18;;;;;;;;;;;;;;;;;;5099278;28;19918;-81
2022/04/29 18:48:44;;;;;;;;;;;;;;;;;;5094045;28;20421;-82
2022/04/29 18:51:10;;;;;;;;;;;;;;;;;;5092191;28;19908;-81
2022/04/29 18:53:35;;;;;;;;;;;;;;;;;;5093292;28;20260;-80
2022/04/29 18:56:01;;;;;;;;;;;;;;;;;;5092273;28;19912;-79
2022/04/29 18:58:28;;;;;;;;;;;;;;;;;;5092795;28;19908;-78
2022/04/29 19:00:54;;;;;;;;;;;;;;;;;;5093214;28;19930;-80
2022/04/29 19:03:19;;;;;;;;;;;;;;;;;;5074295;28;19912;-80
2022/04/29 19:05:45;;;;;;;;;;;;;;;;;;5096349;28;20347;-79
2022/04/29 19:08:11;;;;;;;;;;;;;;;;;;5113104;28;19908;-79
2022/04/29 19:10:37;;;;;;;;;;;;;;;;;;5113354;28;19975;-80
2022/04/29 19:13:03;;;;;;;;;;;;;;;;;;5108947;28;19953;-79
2022/04/29 19:15:29;;;;;;;;;;;;;;;;;;5096257;28;19919;-80
2022/04/29 19:17:55;;;;;;;;;;;;;;;;;;5110480;28;20275;-81
2022/04/29 19:20:21;;;;;;;;;;;;;;;;;;5111401;28;19922;-80
2022/04/29 19:22:47;;;;;;;;;;;;;;;;;;5112574;28;19995;-79
2022/04/29 19:25:13;;;;;;;;;;;;;;;;;;5106892;28;19934;-80
2022/04/29 19:27:39;;;;;;;;;;;;;;;;;;5113260;28;19912;-82
2022/04/29 19:30:05;;;;;;;;;;;;;;;;;;5112293;28;19916;-82
2022/04/29 19:32:31;;;;;;;;;;;;;;;;;;5113041;28;19996;-82
2022/04/29 19:34:57;;;;;;;;;;;;;;;;;;5112907;28;19914;-80
2022/04/29 19:37:23;;;;;;;;;;;;;;;;;;5112277;28;19935;-82
2022/04/29 19:39:49;;;;;;;;;;;;;;;;;;5112898;28;20375;-81
2022/04/29 19:42:14;;;;;;;;;;;;;;;;;;5094426;28;19912;-82
2022/04/29 19:44:40;;;;;;;;;;;;;;;;;;5094803;28;19986;-81
2022/04/29 19:47:07;;;;;;;;;;;;;;;;;;5112547;28;19908;-80
2022/04/29 19:49:33;;;;;;;;;;;;;;;;;;5112771;28;19912;-81
2022/04/29 19:51:59;;;;;;;;;;;;;;;;;;5112754;28;19915;-81
2022/04/29 19:54:25;;;;;;;;;;;;;;;;;;5112400;28;19908;-80
2022/04/29 19:59:36;;;;;;;;;;;;;;;;;;5101025;28;19977;-80
2022/04/29 20:04:46;;;;;;;;;;;;;;;;;;5112579;28;19941;-80
2022/04/29 20:07:12;;;;;;;;;;;;;;;;;;5113629;28;19908;-80
2022/04/29 20:09:38;;;;;;;;;;;;;;;;;;5116642;28;19908;-80
2022/04/29 20:12:04;;;;;;;;;;;;;;;;;;5103894;28;19915;-80
2022/04/29 20:14:30;;;;;;;;;;;;;;;;;;5105116;28;20332;-81
2022/04/29 20:16:56;;;;;;;;;;;;;;;;;;5107423;28;19915;-81
2022/04/29 20:19:22;;;;;;;;;;;;;;;;;;5077250;28;19920;-81
2022/04/29 20:21:50;;;;;;;;;;;;;;;;;;5115871;28;20472;-81
2022/04/29 20:24:17;;;;;;;;;;;;;;;;;;5096854;28;20457;-81
2022/04/29 20:26:42;;;;;;;;;;;;;;;;;;5116168;28;20463;-81
2022/04/29 20:29:08;;;;;;;;;;;;;;;;;;5095083;28;19916;-79
2022/04/29 20:31:34;;;;;;;;;;;12.30;28.10;;;;;;5109789;28;19908;-82
2022/04/29 20:34:00;;;;;;;;;;;;;;;;;;5116291;28;19908;-80
2022/04/29 20:36:28;;;;;;;;;;;;;;;;;;5115274;28;19957;-81
2022/04/29 20:38:54;;;;;;;;;;;;;;;;;;5115978;28;19907;-81
2022/04/29 20:44:04;;;;;;;;;;;;;;;;;;5098895;28;19960;-80
2022/04/29 20:46:30;;;;;;;;;;;;;;;;;;5115720;28;19912;-81
2022/04/29 20:48:57;;;;;;;;;;;;;;;;;;5085266;28;20004;-81
2022/04/29 20:51:24;;;;;;;;;;;;;;;;;;5094881;28;19919;-81
2022/04/29 20:53:50;;;;;;;;;;;;;;;;;;5095459;28;19909;-81
2022/04/29 20:56:16;;;;;;;;;;;;;;;;;;5094394;28;20383;-81
2022/04/29 20:58:42;;;;;;;;;;;;;;;;;;5076805;28;19974;-81
2022/04/29 21:01:07;;;;;;;;;;;;;;;;;;5094601;28;19937;-81
2022/04/29 21:03:33;;;;;;;;;;;;;;;;;;5077067;28;19920;-80
2022/04/29 21:05:59;;;;;;;;;;;;;;;;;;5095190;28;19914;-81
2022/04/29 21:08:25;;;;;;;;;;;;;;;;;;5101270;28;19947;-81
2022/04/29 21:10:51;;;;;;;;;;;;;;;;;;5085584;28;20435;-77
2022/04/29 21:13:17;;;;;;;;;;;;;;;;;;5102515;28;19915;-80
2022/04/29 21:15:45;;;;;;;;;;;;;;;;;;5104115;28;19948;-80
2022/04/29 21:18:11;;;;;;;;;;;;;;;;;;5101306;28;19908;-80
2022/04/29 21:20:36;;;;;;;;;;;;;;;;;;5086978;28;19923;-81
2022/04/29 21:23:02;;;;;;;;;;;;;;;;;;5105870;28;20161;-81
2022/04/29 21:25:28;;;;;;;;;;;;;;;;;;5099135;28;19908;-80
2022/04/29 21:27:54;;;;;;;;;;;;;;;;;;5105544;28;19908;-81
2022/04/29 21:33:05;;;;;;;;;;;;;;;;;;5102353;28;20335;-80
2022/04/29 21:35:31;;;;;;;;;;;;;;;;;;5102213;28;20276;-80
2022/04/29 21:37:57;;;;;;;;;;;;;;;;;;5102473;28;19922;-80
2022/04/29 21:40:23;;;;;;;;;;;;;;;;;;5104590;28;19924;-80
2022/04/29 21:42:48;;;;;;;;;;;;;;;;;;5105008;28;19915;-79
2022/04/29 21:45:14;;;;;;;;;;;;;;;;;;5101754;28;19999;-79
2022/04/29 21:47:43;;;;;;;;;;;;;;;;;;5102402;28;19908;-80
2022/04/29 21:50:12;;;;;;;;;;;;;;;;;;5093630;28;19908;-79
2022/04/29 21:52:38;;;;;;;;;;;;;;;;;;5094208;28;19908;-79
2022/04/29 21:55:04;;;;;;;;;;;;;;;;;;5094178;28;19953;-80
2022/04/29 21:57:32;;;;;;;;;;;;;;;;;;5093534;28;19908;-80
2022/04/29 21:59:58;;;;;;;;;;;;;;;;;;5093950;28;19997;-80
2022/04/29 22:02:24;;;;;;;;;;;;;;;;;;5093483;28;19951;-79
2022/04/29 22:04:50;;;;;;;;;;;10.70;26.40;;;;;;5094019;28;19930;-80
2022/04/29 22:07:16;;;;;;;;;;;;;;;;;;5093424;28;20367;-80
2022/04/29 22:09:42;;;;;;;;;;;;;;;;;;5093870;28;19908;-80
2022/04/29 22:12:07;;;;;;;;;;;;;;;;;;5093870;28;19915;-80
2022/04/29 22:14:33;;;;;;;;;;;;;;;;;;5094273;28;19965;-80
2022/04/29 22:16:59;;;;;;;;;;;;;;;;;;5075702;28;19923;-79
2022/04/29 22:19:25;;;;;;;;;;;10.60;28.80;;;;;;5092849;28;19986;-79
2022/04/29 22:21:51;;;;;;;;;;;;;;;;;;5093660;28;19916;-79
2022/04/29 22:24:16;;;;;;;;;;;10.40;31.50;;;;;;5093035;28;19930;-79
2022/04/29 22:26:44;;;;;;;;;;;;;;;;;;5093635;28;19916;-79
2022/04/29 22:29:10;;;;;;;;;;;;;;;;;;5074342;28;20013;-78
2022/04/29 22:31:36;;;;;;;;;;;;;;;;;;5093477;28;19945;-80
2022/04/29 22:34:02;;;;;;;;;;;;;;;;;;5093584;28;19915;-80
2022/04/29 22:36:28;;;;;;;;;;;;;;;;;;5092907;28;19908;-80
2022/04/29 22:38:54;;;;;;;;;;;;;;;;;;5093327;28;20326;-79
2022/04/29 22:41:20;;;;;;;;;;;;;;;;;;5092418;28;19946;-78
2022/04/29 22:43:46;;;;;;;;;;;;;;;;;;5093437;28;20368;-79
2022/04/29 22:46:11;;;;;;;;;;;;;;;;;;5092787;28;19908;-78
2022/04/29 22:48:37;;;;;;;;;;;;;;;;;;5093275;28;19908;-79
2022/04/29 22:51:03;;;;;;;;;;;;;;;;;;5075185;28;19950;-79
2022/04/29 22:53:29;;;;;;;;;;;;;;;;;;5092698;28;19915;-78
2022/04/29 22:55:55;;;;;;;;;;;;;;;;;;5093310;28;20283;-78
2022/04/29 22:58:22;;;;;;;;;;;;;;;;;;5092483;28;19908;-78
2022/04/29 23:00:48;;;;;;;;;;;;;;;;;;5093256;28;19920;-78
2022/04/29 23:03:13;;;;;;;;;;;;;;;;;;5092899;28;19935;-78
2022/04/29 23:05:39;;;;;;;;;;;;;;;;;;5093143;28;19912;-79
2022/04/29 23:08:05;;;;;;;;;;;;;;;;;;5093105;28;19934;-80
2022/04/29 23:10:31;;;;;;;;;;;;;;;;;;5092501;28;19912;-79
2022/04/29 23:12:57;;;;;;;;;;;;;;;;;;5093159;28;20322;-79
2022/04/29 23:15:23;;;;;;;;;;;;;;;;;;5092113;28;20372;-79
2022/04/29 23:20:34;;;;;;;;;;;;;;;;;;5092153;28;19987;-80
2022/04/29 23:23:00;;;;;;;;;;;;;;;;;;5093054;28;19916;-80
2022/04/29 23:25:26;;;;;;;;;;;;;;;;;;5092344;28;19908;-80
2022/04/29 23:27:52;;;;;;;;;;;;;;;;;;5074897;28;19995;-80
2022/04/29 23:30:18;;;;;;;;;;;;;;;;;;5091960;28;19959;-79
2022/04/29 23:32:44;;;;;;;;;;;;;;;;;;5093028;28;19912;-79
2022/04/29 23:35:10;;;;;;;;;;;;;;;;;;5092876;28;19908;-80
2022/04/29 23:37:39;;;;;;;;;;;9.40;29.10;;;;;;5074119;28;19916;-79
2022/04/29 23:40:05;;;;;;;;;;;;;;;;;;5092678;28;20009;-80
2022/04/29 23:42:30;;;;;;;;;;;9.40;33.10;;;;;;5094142;28;20435;-80
2022/04/29 23:44:56;;;;;;;;;;;;;;;;;;5096728;28;19934;-80
2022/04/29 23:47:22;;;;;;;;;;;;;;;;;;5095810;28;19909;-80
2022/04/29 23:49:48;;;;;;;;;;;;;;;;;;5078462;28;19908;-79
2022/04/29 23:52:14;;;;;;;;;;;;;;;;;;5095995;28;19915;-73
2022/04/29 23:54:40;;;;;;;;;;;;;;;;;;5096539;28;19915;-80
2022/04/29 23:57:06;;;;;;;;;;;;;;;;;;5096246;28;19912;-80
2022/04/29 23:59:33;;;;;;;;;;;;;;;;;;5095719;28;19924;-79
